createdAt,value
2023-05-21T00:01:17.022Z,18.40
2023-05-21T00:04:32.030Z,18.41
2023-05-21T00:07:40.618Z,18.39
2023-05-21T00:10:55.025Z,18.28
2023-05-21T00:14:04.057Z,18.32
2023-05-21T00:17:19.103Z,18.32
2023-05-21T00:20:21.105Z,18.34
2023-05-21T00:23:36.033Z,18.32
2023-05-21T00:26:51.024Z,18.25
2023-05-21T00:30:06.036Z,18.24
2023-05-21T00:33:14.557Z,18.22
2023-05-21T00:36:23.035Z,18.16
2023-05-21T00:39:44.985Z,18.16
2023-05-21T00:43:03.060Z,18.06
2023-05-21T00:46:15.248Z,18.11
2023-05-21T00:49:24.010Z,18.06
2023-05-21T00:52:38.990Z,18.04
2023-05-21T00:55:47.644Z,18.04
2023-05-21T00:59:02.996Z,18.01
2023-05-21T01:02:18.068Z,17.98
2023-05-21T01:05:20.193Z,17.93
2023-05-21T01:08:36.019Z,17.77
2023-05-21T01:11:53.985Z,17.84
2023-05-21T01:14:56.563Z,17.77
2023-05-21T01:18:11.040Z,17.74
2023-05-21T01:21:24.976Z,17.71
2023-05-21T01:24:40.998Z,17.70
2023-05-21T01:27:49.046Z,17.63
2023-05-21T01:31:09.003Z,17.55
2023-05-21T01:34:22.039Z,17.54
2023-05-21T01:37:48.019Z,17.51
2023-05-21T01:41:17.020Z,17.49
2023-05-21T01:44:26.049Z,17.49
2023-05-21T01:47:43.040Z,17.44
2023-05-21T01:51:00.008Z,17.42
2023-05-21T01:54:15.011Z,17.31
2023-05-21T01:57:17.862Z,17.33
2023-05-21T02:00:34.039Z,17.30
2023-05-21T02:03:42.716Z,17.31
2023-05-21T02:06:51.051Z,17.26
2023-05-21T02:10:06.004Z,17.24
2023-05-21T02:13:08.122Z,17.17
2023-05-21T02:16:23.081Z,17.11
2023-05-21T02:19:31.677Z,17.12
2023-05-21T02:22:40.026Z,17.04
2023-05-21T02:25:48.682Z,17.02
2023-05-21T02:29:04.029Z,17.08
2023-05-21T02:32:19.016Z,17.07
2023-05-21T02:35:34.263Z,17.06
2023-05-21T02:38:43.028Z,17.06
2023-05-21T02:41:58.254Z,16.99
2023-05-21T02:45:07.055Z,16.93
2023-05-21T02:48:15.539Z,16.90
2023-05-21T02:51:24.046Z,16.90
2023-05-21T02:54:39.026Z,16.92
2023-05-21T02:57:48.308Z,16.91
2023-05-21T03:01:03.038Z,16.91
2023-05-21T03:04:18.039Z,16.89
2023-05-21T03:07:20.151Z,16.83
2023-05-21T03:10:35.062Z,16.86
2023-05-21T03:13:36.930Z,16.86
2023-05-21T03:16:59.109Z,16.88
2023-05-21T03:20:01.038Z,16.86
2023-05-21T03:23:16.867Z,16.88
2023-05-21T03:26:26.434Z,16.88
2023-05-21T03:29:35.048Z,16.86
2023-05-21T03:32:43.776Z,16.89
2023-05-21T03:35:59.039Z,16.86
2023-05-21T03:39:07.033Z,16.88
2023-05-21T03:42:29.043Z,16.87
2023-05-21T03:45:37.988Z,16.90
2023-05-21T03:48:47.032Z,16.97
2023-05-21T03:52:02.046Z,17.03
2023-05-21T03:55:17.041Z,17.10
2023-05-21T03:58:25.068Z,17.15
2023-05-21T04:01:33.652Z,17.15
2023-05-21T04:04:48.225Z,17.21
2023-05-21T04:07:50.175Z,17.30
2023-05-21T04:11:05.059Z,17.38
2023-05-21T04:14:14.051Z,17.47
2023-05-21T04:17:22.699Z,17.56
2023-05-21T04:20:31.026Z,17.64
2023-05-21T04:23:39.789Z,17.70
2023-05-21T04:26:48.080Z,17.79
2023-05-21T04:30:11.048Z,17.84
2023-05-21T04:33:13.399Z,17.89
2023-05-21T04:36:28.050Z,17.92
2023-05-21T04:39:30.511Z,17.83
2023-05-21T04:42:45.108Z,17.97
2023-05-21T04:45:53.039Z,18.05
2023-05-21T04:49:09.065Z,18.12
2023-05-21T04:52:17.658Z,18.16
2023-05-21T04:55:26.068Z,18.26
2023-05-21T04:58:41.040Z,18.43
2023-05-21T05:01:49.610Z,18.48
2023-05-21T05:04:58.052Z,18.52
2023-05-21T05:08:06.688Z,18.63
2023-05-21T05:11:15.058Z,18.68
2023-05-21T05:14:30.097Z,18.72
2023-05-21T05:17:32.025Z,18.84
2023-05-21T05:20:47.081Z,18.91
2023-05-21T05:23:55.082Z,18.98
2023-05-21T05:27:10.115Z,19.03
2023-05-21T05:30:18.680Z,19.09
2023-05-21T05:33:27.065Z,19.14
2023-05-21T05:36:42.053Z,19.21
2023-05-21T05:39:43.950Z,19.28
2023-05-21T05:43:06.044Z,19.31
2023-05-21T05:46:14.129Z,19.31
2023-05-21T05:49:22.715Z,19.43
2023-05-21T05:52:38.082Z,19.51
2023-05-21T05:55:53.072Z,19.61
2023-05-21T05:59:02.087Z,19.70
2023-05-21T06:02:10.691Z,19.74
2023-05-21T06:05:19.106Z,19.78
2023-05-21T06:08:35.457Z,19.89
2023-05-21T06:11:38.838Z,19.98
2023-05-21T06:14:54.054Z,20.08
2023-05-21T06:18:02.116Z,20.17
2023-05-21T06:21:10.658Z,20.26
2023-05-21T06:24:25.056Z,20.41
2023-05-21T06:27:33.066Z,20.52
2023-05-21T06:30:48.052Z,20.55
2023-05-21T06:33:56.885Z,20.69
2023-05-21T06:37:12.043Z,20.85
2023-05-21T06:40:13.889Z,20.95
2023-05-21T06:43:36.053Z,21.19
2023-05-21T06:46:45.062Z,21.12
2023-05-21T06:50:00.096Z,21.35
2023-05-21T06:53:02.119Z,21.53
2023-05-21T06:56:17.084Z,21.63
2023-05-21T06:59:19.006Z,21.68
2023-05-21T07:02:34.162Z,21.80
2023-05-21T07:05:49.088Z,22.03
2023-05-21T07:08:57.104Z,22.28
2023-05-21T07:12:12.085Z,22.52
2023-05-21T07:15:20.747Z,22.62
2023-05-21T07:18:36.079Z,22.94
2023-05-21T07:21:51.087Z,23.35
2023-05-21T07:24:59.671Z,23.55
2023-05-21T07:28:08.060Z,23.81
2023-05-21T07:31:16.691Z,23.65
2023-05-21T07:34:32.091Z,23.81
2023-05-21T07:37:34.050Z,23.56
2023-05-21T07:40:56.069Z,23.86
2023-05-21T07:44:11.073Z,24.14
2023-05-21T07:47:19.094Z,23.98
2023-05-21T07:50:34.140Z,24.05
2023-05-21T07:53:35.958Z,23.86
2023-05-21T07:56:51.107Z,24.49
2023-05-21T07:59:59.104Z,24.61
2023-05-21T08:03:07.781Z,25.07
2023-05-21T08:06:23.105Z,24.85
2023-05-21T08:09:32.109Z,25.23
2023-05-21T08:12:40.658Z,24.86
2023-05-21T08:15:51.312Z,25.27
2023-05-21T08:19:01.767Z,25.46
2023-05-21T08:22:10.114Z,25.49
2023-05-21T08:25:25.110Z,25.33
2023-05-21T08:28:40.083Z,25.48
2023-05-21T08:31:55.157Z,25.47
2023-05-21T08:34:57.053Z,25.33
2023-05-21T08:38:12.108Z,25.34
2023-05-21T08:41:21.639Z,25.26
2023-05-21T08:44:40.104Z,26.05
2023-05-21T08:47:50.267Z,26.08
2023-05-21T08:50:59.687Z,26.08
2023-05-21T08:54:14.107Z,26.28
2023-05-21T08:57:17.370Z,26.61
2023-05-21T09:00:32.100Z,26.82
2023-05-21T09:03:41.201Z,27.37
2023-05-21T09:06:50.236Z,27.17
2023-05-21T09:10:11.111Z,27.13
2023-05-21T09:13:21.051Z,27.35
2023-05-21T09:16:36.154Z,26.89
2023-05-21T09:19:45.112Z,26.51
2023-05-21T09:23:01.118Z,26.95
2023-05-21T09:26:19.117Z,27.15
2023-05-21T09:29:34.180Z,27.17
2023-05-21T09:32:43.768Z,27.10
2023-05-21T09:35:52.128Z,27.45
2023-05-21T09:39:00.695Z,27.52
2023-05-21T09:42:16.126Z,27.65
2023-05-21T09:45:34.363Z,27.74
2023-05-21T09:48:50.204Z,27.51
2023-05-21T09:51:56.290Z,27.46
2023-05-21T09:55:18.148Z,27.32
2023-05-21T09:58:29.130Z,27.72
2023-05-21T10:01:38.435Z,28.35
2023-05-21T10:04:57.137Z,28.53
2023-05-21T10:08:09.223Z,28.18
2023-05-21T10:11:26.144Z,27.31
2023-05-21T10:14:42.144Z,27.89
2023-05-21T10:17:52.857Z,28.22
2023-05-21T10:21:09.132Z,28.63
2023-05-21T10:24:18.394Z,28.94
2023-05-21T10:27:36.175Z,28.78
2023-05-21T10:30:45.887Z,28.74
2023-05-21T10:33:55.141Z,28.76
2023-05-21T10:37:14.159Z,28.63
2023-05-21T10:40:29.160Z,28.70
2023-05-21T10:43:52.159Z,28.34
2023-05-21T10:47:12.589Z,28.56
2023-05-21T10:50:36.319Z,28.35
2023-05-21T10:54:26.249Z,28.27
2023-05-21T10:58:04.135Z,28.57
2023-05-21T11:01:07.853Z,29.15
2023-05-21T11:04:23.162Z,29.56
2023-05-21T11:07:52.299Z,29.17
2023-05-21T11:11:07.138Z,29.27
2023-05-21T11:14:47.463Z,29.19
2023-05-21T11:17:57.116Z,28.78
2023-05-21T11:21:13.170Z,29.28
2023-05-21T11:24:28.185Z,29.44
2023-05-21T11:27:45.186Z,29.75
2023-05-21T11:31:32.464Z,29.63
2023-05-21T11:34:48.320Z,28.97
2023-05-21T11:38:03.164Z,28.69
2023-05-21T11:41:11.173Z,29.11
2023-05-21T11:44:44.172Z,28.77
2023-05-21T11:47:52.933Z,28.94
2023-05-21T11:51:09.178Z,28.61
2023-05-21T11:54:18.541Z,28.64
2023-05-21T11:57:35.189Z,28.93
2023-05-21T12:00:40.639Z,28.87
2023-05-21T12:03:55.211Z,29.07
2023-05-21T12:07:11.174Z,28.98
2023-05-21T12:10:13.387Z,29.00
2023-05-21T12:13:28.201Z,28.74
2023-05-21T12:16:31.123Z,28.94
2023-05-21T12:19:46.181Z,29.21
2023-05-21T12:22:57.226Z,29.12
2023-05-21T12:26:06.100Z,28.93
2023-05-21T12:29:14.175Z,29.16
2023-05-21T12:32:22.801Z,29.27
2023-05-21T12:35:37.196Z,28.78
2023-05-21T12:38:45.211Z,29.09
2023-05-21T12:42:02.229Z,29.32
2023-05-21T12:45:15.198Z,29.58
2023-05-21T12:48:23.911Z,29.68
2023-05-21T12:51:32.227Z,29.42
2023-05-21T12:54:42.624Z,29.25
2023-05-21T12:57:57.208Z,29.48
2023-05-21T13:00:59.284Z,29.30
2023-05-21T13:04:14.228Z,29.39
2023-05-21T13:07:25.178Z,29.44
2023-05-21T13:10:33.846Z,29.65
2023-05-21T13:13:49.208Z,29.41
2023-05-21T13:17:04.201Z,29.40
2023-05-21T13:20:19.307Z,29.48
2023-05-21T13:23:34.277Z,29.40
2023-05-21T13:26:36.153Z,28.59
2023-05-21T13:29:51.257Z,29.00
2023-05-21T13:32:53.294Z,28.61
2023-05-21T13:36:08.224Z,28.80
2023-05-21T13:39:16.757Z,28.77
2023-05-21T13:42:32.261Z,28.79
2023-05-21T13:45:48.570Z,28.70
2023-05-21T13:49:04.235Z,28.77
2023-05-21T13:52:14.216Z,28.92
2023-05-21T13:55:22.964Z,28.31
2023-05-21T13:58:31.204Z,28.14
2023-05-21T14:01:46.297Z,28.17
2023-05-21T14:05:01.244Z,28.62
2023-05-21T14:08:16.235Z,28.66
2023-05-21T14:11:18.148Z,28.67
2023-05-21T14:14:33.279Z,28.73
2023-05-21T14:17:35.289Z,28.41
2023-05-21T14:20:50.220Z,28.51
2023-05-21T14:23:58.821Z,28.38
2023-05-21T14:27:15.269Z,28.44
2023-05-21T14:30:24.215Z,28.36
2023-05-21T14:33:33.503Z,28.24
2023-05-21T14:36:42.244Z,28.20
2023-05-21T14:40:04.258Z,27.77
2023-05-21T14:43:19.245Z,28.11
2023-05-21T14:46:34.418Z,28.06
2023-05-21T14:49:43.239Z,28.27
2023-05-21T14:52:51.757Z,28.20
2023-05-21T14:56:00.227Z,28.24
2023-05-21T14:59:15.236Z,28.36
2023-05-21T15:02:23.795Z,28.27
2023-05-21T15:05:33.244Z,28.37
2023-05-21T15:08:42.203Z,28.36
2023-05-21T15:11:57.336Z,28.04
2023-05-21T15:15:06.254Z,27.94
2023-05-21T15:18:21.222Z,28.04
2023-05-21T15:21:36.246Z,27.99
2023-05-21T15:24:38.136Z,27.96
2023-05-21T15:27:53.261Z,27.72
2023-05-21T15:30:55.079Z,27.79
2023-05-21T15:34:10.630Z,27.56
2023-05-21T15:37:12.664Z,27.52
2023-05-21T15:40:27.450Z,27.64
2023-05-21T15:43:49.243Z,27.80
2023-05-21T15:46:58.399Z,27.70
2023-05-21T15:50:16.231Z,27.51
2023-05-21T15:53:24.883Z,27.41
2023-05-21T15:56:39.269Z,27.33
2023-05-21T15:59:47.869Z,27.45
2023-05-21T16:02:56.336Z,27.30
2023-05-21T16:06:04.795Z,27.44
2023-05-21T16:09:19.254Z,27.29
2023-05-21T16:12:27.266Z,27.11
2023-05-21T16:15:36.129Z,26.85
2023-05-21T16:18:51.381Z,26.97
2023-05-21T16:22:00.562Z,27.03
2023-05-21T16:25:09.277Z,27.01
2023-05-21T16:28:17.806Z,27.08
2023-05-21T16:31:32.297Z,27.02
2023-05-21T16:34:40.245Z,26.95
2023-05-21T16:37:48.844Z,26.88
2023-05-21T16:40:57.285Z,26.64
2023-05-21T16:44:12.547Z,26.66
2023-05-21T16:47:27.290Z,26.56
2023-05-21T16:50:29.199Z,26.46
2023-05-21T16:53:44.292Z,26.30
2023-05-21T16:56:52.296Z,26.22
2023-05-21T17:00:07.272Z,26.14
2023-05-21T17:03:09.490Z,26.04
2023-05-21T17:06:24.297Z,26.01
2023-05-21T17:09:32.891Z,26.02
2023-05-21T17:12:41.287Z,25.95
2023-05-21T17:15:51.164Z,25.83
2023-05-21T17:19:00.330Z,25.78
2023-05-21T17:22:15.286Z,25.70
2023-05-21T17:25:31.116Z,25.64
2023-05-21T17:28:34.213Z,25.53
2023-05-21T17:31:49.319Z,25.51
2023-05-21T17:34:51.283Z,25.36
2023-05-21T17:38:06.271Z,25.29
2023-05-21T17:41:08.145Z,25.14
2023-05-21T17:44:30.299Z,25.00
2023-05-21T17:47:32.277Z,24.91
2023-05-21T17:50:47.294Z,24.85
2023-05-21T17:53:49.170Z,24.76
2023-05-21T17:57:04.307Z,24.69
2023-05-21T18:00:13.318Z,24.63
2023-05-21T18:03:22.321Z,24.57
2023-05-21T18:06:38.269Z,24.45
2023-05-21T18:09:53.326Z,24.37
2023-05-21T18:13:01.876Z,24.17
2023-05-21T18:16:10.335Z,24.05
2023-05-21T18:19:19.359Z,23.93
2023-05-21T18:22:28.284Z,23.80
2023-05-21T18:25:37.818Z,23.67
2023-05-21T18:28:53.325Z,23.59
2023-05-21T18:32:02.367Z,23.41
2023-05-21T18:35:13.148Z,23.28
2023-05-21T18:38:31.310Z,23.16
2023-05-21T18:41:47.334Z,23.10
2023-05-21T18:45:03.349Z,22.97
2023-05-21T18:48:12.796Z,22.87
2023-05-21T18:51:28.310Z,22.78
2023-05-21T18:54:31.150Z,22.67
2023-05-21T18:57:47.295Z,22.54
2023-05-21T19:00:56.760Z,22.44
2023-05-21T19:04:06.349Z,22.32
2023-05-21T19:07:15.957Z,22.26
2023-05-21T19:10:32.545Z,21.95
2023-05-21T19:13:41.797Z,22.09
2023-05-21T19:16:52.692Z,21.96
2023-05-21T19:20:10.335Z,21.87
2023-05-21T19:23:13.275Z,21.76
2023-05-21T19:26:29.317Z,21.66
2023-05-21T19:29:38.821Z,21.57
2023-05-21T19:32:48.360Z,21.47
2023-05-21T19:35:58.982Z,21.47
2023-05-21T19:39:08.314Z,21.35
2023-05-21T19:42:24.705Z,21.34
2023-05-21T19:45:34.350Z,21.06
2023-05-21T19:48:50.365Z,21.27
2023-05-21T19:51:59.985Z,21.24
2023-05-21T19:55:09.338Z,21.10
2023-05-21T19:58:25.348Z,21.02
2023-05-21T20:01:30.353Z,20.92
2023-05-21T20:04:46.339Z,20.90
2023-05-21T20:07:55.658Z,20.87
2023-05-21T20:11:17.324Z,20.77
2023-05-21T20:14:19.323Z,20.72
2023-05-21T20:17:34.374Z,20.65
2023-05-21T20:20:50.365Z,20.59
2023-05-21T20:23:53.280Z,20.51
2023-05-21T20:27:08.337Z,20.46
2023-05-21T20:30:17.305Z,20.48
2023-05-21T20:33:34.334Z,20.55
2023-05-21T20:36:43.378Z,20.63
2023-05-21T20:39:52.891Z,20.51
2023-05-21T20:43:01.319Z,20.59
2023-05-21T20:46:09.933Z,20.62
2023-05-21T20:49:24.378Z,20.71
2023-05-21T20:52:26.470Z,20.81
2023-05-21T20:55:41.315Z,20.85
2023-05-21T20:58:49.327Z,21.08
2023-05-21T21:01:57.933Z,21.27
2023-05-21T21:05:12.332Z,21.35
2023-05-21T21:08:20.320Z,21.50
2023-05-21T21:11:28.997Z,21.50
2023-05-21T21:14:43.304Z,21.50
2023-05-21T21:17:58.383Z,21.47
2023-05-21T21:21:06.953Z,21.55
2023-05-21T21:24:21.358Z,21.53
2023-05-21T21:27:36.343Z,21.50
2023-05-21T21:30:44.952Z,21.45
2023-05-21T21:33:59.385Z,21.47
2023-05-21T21:37:07.367Z,21.46
2023-05-21T21:40:15.995Z,21.44
2023-05-21T21:43:31.372Z,21.44
2023-05-21T21:46:46.332Z,21.35
2023-05-21T21:49:54.348Z,21.38
2023-05-21T21:53:09.340Z,21.40
2023-05-21T21:56:17.971Z,21.35
2023-05-21T21:59:33.344Z,21.31
2023-05-21T22:02:41.384Z,21.24
2023-05-21T22:05:56.355Z,21.18
2023-05-21T22:09:04.437Z,20.94
2023-05-21T22:12:13.334Z,21.02
2023-05-21T22:15:27.380Z,20.97
2023-05-21T22:18:42.360Z,20.83
2023-05-21T22:21:51.017Z,20.75
2023-05-21T22:25:00.366Z,20.73
2023-05-21T22:28:08.904Z,20.70
2023-05-21T22:31:17.401Z,20.48
2023-05-21T22:34:26.035Z,20.37
2023-05-21T22:37:35.360Z,20.31
2023-05-21T22:40:50.349Z,20.29
2023-05-21T22:44:12.365Z,20.36
2023-05-21T22:47:27.400Z,20.30
2023-05-21T22:50:35.360Z,20.26
2023-05-21T22:53:50.378Z,20.22
2023-05-21T22:57:06.450Z,20.12
2023-05-21T23:00:21.360Z,20.09
2023-05-21T23:03:36.381Z,20.01
2023-05-21T23:06:38.272Z,19.92
2023-05-21T23:09:53.385Z,19.81
2023-05-21T23:13:02.026Z,19.70
2023-05-21T23:16:10.435Z,19.61
2023-05-21T23:19:25.446Z,19.49
2023-05-21T23:22:40.373Z,19.36
2023-05-21T23:25:55.364Z,19.25
2023-05-21T23:28:57.643Z,19.18
2023-05-21T23:32:12.361Z,19.11
2023-05-21T23:35:27.388Z,19.05
2023-05-21T23:38:29.316Z,18.99
2023-05-21T23:41:44.390Z,18.91
2023-05-21T23:44:59.660Z,18.79
2023-05-21T23:48:14.397Z,18.78
2023-05-21T23:51:16.411Z,18.99
2023-05-21T23:54:31.365Z,18.99
2023-05-21T23:57:46.355Z,19.04
